Time;durP1;ratioP1;P1;durP2;ratioP2;P2;SDS_P1;SDS_P2;PMS_P1;PMS_P2;Temp;Humidity;BMP_temperature;BMP_pressure;BME280_temperature;BME280_humidity;BME280_pressure;Samples;Min_cycle;Max_cycle;Signal;HPM_P1;HPM_P2
2023/03/28 00:00:47;;;;;;;9.18;3.95;;;;;;;2.40;100.00;101314.41;4926896;29;20044;-89
2023/03/28 00:03:38;;;;;;;;;;;;;;;;;;;;;
2023/03/28 00:06:15;;;;;;;8.85;3.13;;;;;;;1.87;100.00;101224.63;4910028;29;20044;-89
2023/03/28 00:08:46;;;;;;;7.55;3.28;;;;;;;2.21;100.00;101280.41;4910028;29;20044;-92
2023/03/28 00:11:18;;;;;;;5.47;3.13;;;;;;;2.27;100.00;101298.72;4912883;29;20059;-88
2023/03/28 00:13:56;;;;;;;9.15;3.47;;;;;;;2.24;100.00;101289.13;4918371;29;20071;-88
2023/03/28 00:16:30;;;;;;;5.50;3.10;;;;;;;2.52;100.00;101337.06;4932486;29;20127;-86
2023/03/28 00:19:01;;;;;;;8.52;3.30;;;;;;;2.00;100.00;101249.91;4917267;29;20044;-84
2023/03/28 00:21:32;;;;;;;10.70;3.50;;;;;;;2.52;100.00;101342.28;4897728;29;20123;-91
2023/03/28 00:24:05;;;;;;;13.63;3.90;;;;;;;1.95;100.00;101244.66;4916199;29;20051;-94
2023/03/28 00:26:38;;;;;;;6.70;3.65;;;;;;;2.23;100.00;101291.72;4908353;29;20055;-88
2023/03/28 00:29:19;;;;;;;9.95;3.50;;;;;;;2.51;100.00;101347.53;4908592;29;20059;-93
2023/03/28 00:31:54;;;;;;;11.57;3.72;;;;;;;2.33;100.00;101327.47;4902827;29;20135;-94
2023/03/28 00:34:28;;;;;;;10.90;3.95;;;;;;;2.08;100.00;101295.19;4913488;29;20046;-87
2023/03/28 00:36:57;;;;;;;8.20;4.30;;;;;;;2.42;100.00;101359.72;4937450;28;20052;-87
2023/03/28 00:39:26;;;;;;;9.20;3.50;;;;;;;2.40;100.00;101361.44;4915662;29;20041;-91
2023/03/28 00:41:56;;;;;;;7.70;3.85;;;;;;;2.10;100.00;101309.13;4925033;29;20528;-95
2023/03/28 00:44:47;;;;;;;9.32;3.80;;;;;;;2.29;100.00;101341.41;4897238;29;20040;-90
2023/03/28 00:47:42;;;;;;;8.82;4.22;;;;;;;2.42;100.00;101364.94;4931105;29;20036;-88
2023/03/28 00:50:39;;;;;;;11.65;3.95;;;;;;;2.41;100.00;101370.16;4914660;29;20089;-87
2023/03/28 00:53:20;;;;;;;8.25;3.50;;;;;;;2.06;100.00;101317.81;4913305;29;20095;-86
2023/03/28 00:55:58;;;;;;;12.35;4.00;;;;;;;2.43;100.00;101371.03;4919239;29;20063;-90
2023/03/28 00:58:33;;;;;;;9.82;4.30;;;;;;;2.42;100.00;101371.91;5029191;23;20047;-87
2023/03/28 01:01:04;;;;;;;12.75;4.00;;;;;;;2.40;100.00;101386.72;4933271;29;20035;-87
2023/03/28 01:03:51;;;;;;;8.60;4.18;;;;;;;1.86;100.00;101288.19;4901761;29;20064;-90
2023/03/28 01:06:21;;;;;;;9.93;4.03;;;;;;;2.20;100.00;101341.41;4911484;29;20029;-85
2023/03/28 01:08:56;;;;;;;7.07;4.28;;;;;;;2.41;100.00;101386.72;4917612;29;20063;-95
2023/03/28 01:11:27;;;;;;;7.53;3.97;;;;;;;2.42;100.00;101380.63;4913485;29;20044;-87
2023/03/28 01:14:03;;;;;;;9.50;3.80;;;;;;;2.44;100.00;101367.56;4913392;29;20108;-86
2023/03/28 01:16:32;;;;;;;13.15;4.30;;;;;;;2.28;100.00;101352.72;4928792;23;20127;-83
2023/03/28 01:19:49;;;;;;;11.55;4.18;;;;;;;2.43;100.00;101381.50;5023565;24;20056;-85
2023/03/28 01:22:57;;;;;;;11.40;3.95;;;;;;;2.00;100.00;101312.59;5088249;23;20052;-84
2023/03/28 01:26:17;;;;;;;8.65;3.80;;;;;;;2.38;100.00;101383.22;4907676;29;20067;-88
2023/03/28 01:29:13;;;;;;;;;;;;;;;2.36;100.00;101380.59;4925103;29;20055;-90
2023/03/28 01:32:05;;;;;;;10.98;4.78;;;;;;;2.26;100.00;101363.16;5085359;23;20069;-90
2023/03/28 01:35:15;;;;;;;10.48;3.92;;;;;;;2.30;100.00;101385.84;4939252;28;20039;-88
2023/03/28 01:41:09;;;;;;;12.70;4.05;;;;;;;2.26;100.00;101386.69;4964182;23;20052;-88
2023/03/28 01:54:42;;;;;;;9.02;3.92;;;;;;;2.37;100.00;101391.94;5978302;22;6091535;-87
2023/03/28 01:57:23;;;;;;;8.95;3.55;;;;;;;2.10;100.00;101350.94;6226555;22;20071;-86
2023/03/28 02:00:14;;;;;;;10.30;4.65;;;;;;;2.29;100.00;101397.16;6221996;22;20020;-86
2023/03/28 02:05:44;;;;;;;11.25;3.90;;;;;;;2.23;100.00;101393.63;6256629;22;20356;-89
2023/03/28 02:08:32;;;;;;;10.55;4.10;;;;;;;2.21;100.00;101397.97;6242623;23;20012;-92
2023/03/28 02:11:07;;;;;;;10.80;3.80;;;;;;;1.84;100.00;101349.97;6237754;23;20039;-91
2023/03/28 02:13:46;;;;;;;6.80;3.47;;;;;;;2.17;100.00;101404.09;6238541;23;20020;-94
2023/03/28 02:16:21;;;;;;;12.68;4.20;;;;;;;2.16;100.00;101400.59;6235208;23;20117;-92
2023/03/28 02:19:03;;;;;;;9.27;3.90;;;;;;;1.84;100.00;101344.75;6233868;23;20013;-91
2023/03/28 02:22:05;;;;;;;11.02;3.70;;;;;;;2.13;100.00;101402.34;6211058;23;20086;-91
2023/03/28 02:24:37;;;;;;;10.32;4.15;;;;;;;2.11;100.00;101389.25;6232228;23;20024;-87
2023/03/28 02:27:08;;;;;;;12.32;4.43;;;;;;;1.75;100.00;101343.84;6234199;23;20023;-89
2023/03/28 02:29:41;;;;;;;9.88;4.20;;;;;;;2.06;100.00;101388.34;6214173;23;20030;-94
2023/03/28 02:32:14;;;;;;;10.07;4.03;;;;;;;2.04;100.00;101384.91;6233827;23;20023;-90
2023/03/28 02:34:47;;;;;;;8.93;4.40;;;;;;;2.01;100.00;101387.50;6258250;23;20018;-88
2023/03/28 02:37:44;;;;;;;16.30;5.05;;;;;;;1.40;100.00;101286.28;6238086;23;20035;-87
2023/03/28 02:43:34;;;;;;;9.35;4.32;;;;;;;1.98;100.00;101377.03;6190008;22;20039;-89
2023/03/28 02:46:33;;;;;;;8.02;4.93;;;;;;;1.96;100.00;101381.38;6266498;22;20016;-87
2023/03/28 02:49:39;;;;;;;11.32;4.43;;;;;;;1.93;100.00;101384.84;6260842;23;20118;-86
2023/03/28 02:52:33;;;;;;;;;;;;;;;1.92;100.00;101371.75;6263219;23;20008;-85
2023/03/28 02:55:23;;;;;;;13.95;4.53;;;;;;;1.90;100.00;101365.66;6253098;23;19981;-90
2023/03/28 02:58:13;;;;;;;12.63;4.75;;;;;;;1.23;100.00;101268.81;6253886;23;20028;-86
2023/03/28 03:00:50;;;;;;;12.32;4.85;;;;;;;1.20;100.00;101263.56;6253438;23;20027;-89
2023/03/28 03:03:42;;;;;;;13.20;4.85;;;;;;;1.47;100.00;101317.63;6255237;22;20016;-88
2023/03/28 03:06:16;;;;;;;14.10;4.53;;;;;;;1.84;100.00;101374.38;6256009;23;20028;-87
2023/03/28 03:08:50;;;;;;;9.13;4.65;;;;;;;1.52;100.00;101313.31;6233572;23;20103;-92
2023/03/28 03:11:18;;;;;;;18.30;5.50;;;;;;;1.83;100.00;101382.19;6260055;23;20016;-87
2023/03/28 03:13:46;;;;;;;12.32;5.38;;;;;;;1.84;100.00;101384.81;6263315;22;20022;-85
2023/03/28 03:16:19;;;;;;;12.40;4.88;;;;;;;1.81;100.00;101379.56;6259412;22;20055;-88
2023/03/28 03:18:56;;;;;;;13.85;4.75;;;;;;;1.52;100.00;101326.34;6240898;22;20018;-90
2023/03/28 03:26:58;;;;;;;13.82;5.63;;;;;;;1.39;100.00;101305.41;6270209;22;20062;-93
2023/03/28 03:29:30;;;;;;;10.57;5.10;;;;;;;1.79;100.00;101367.38;6205150;22;20019;-85
2023/03/28 03:32:05;;;;;;;11.25;5.10;;;;;;;1.89;100.00;101370.00;6221046;22;21382;-87
2023/03/28 03:34:40;;;;;;;10.75;5.28;;;;;;;1.39;100.00;101286.28;6240627;22;20017;-85
2023/03/28 03:37:18;;;;;;;15.68;5.80;;;;;;;1.51;100.00;101312.44;6230896;22;20008;-87
2023/03/28 03:39:50;;;;;;;13.65;5.68;;;;;;;1.82;100.00;101365.66;6258153;22;20018;-86
2023/03/28 03:42:27;;;;;;;11.85;5.30;;;;;;;1.77;100.00;101372.56;6222091;23;20008;-86
2023/03/28 03:44:59;;;;;;;11.88;5.57;;;;;;;1.72;100.00;101377.81;6244145;22;20004;-86
2023/03/28 03:47:36;;;;;;;13.63;5.60;;;;;;;1.45;100.00;101333.25;6243261;22;20069;-86
2023/03/28 03:50:10;;;;;;;;;;;;;;;1.63;100.00;101369.91;6179593;22;20013;-83
2023/03/28 03:52:39;;;;;;;12.90;5.47;;;;;;;1.63;100.00;101374.25;6185745;23;19904;-84
2023/03/28 03:55:13;;;;;;;16.55;5.93;;;;;;;1.32;100.00;101334.94;6160405;23;20009;-85
2023/03/28 03:57:47;;;;;;;14.60;5.75;;;;;;;1.60;100.00;101374.22;6121083;23;20025;-85
2023/03/28 04:06:02;;;;;;;17.38;6.03;;;;;;;1.08;100.00;101310.47;6172033;23;20032;-84
2023/03/28 04:08:36;;;;;;;15.57;6.60;;;;;;;1.47;100.00;101388.97;6126212;23;20060;-85
2023/03/28 04:11:12;;;;;;;12.35;6.13;;;;;;;1.49;100.00;101388.97;6144604;23;20018;-85
2023/03/28 04:13:51;;;;;;;12.90;6.35;;;;;;;1.07;100.00;101327.84;6154453;23;20434;-92
2023/03/28 04:16:24;;;;;;;14.95;6.32;;;;;;;1.35;100.00;101384.53;6223375;23;20020;-92
2023/03/28 04:19:15;;;;;;;19.63;6.65;;;;;;;1.40;100.00;101402.84;6229095;22;20036;-90
2023/03/28 04:22:17;;;;;;;17.15;6.38;;;;;;;1.39;100.00;101404.59;6221954;22;20085;-91
2023/03/28 04:24:56;;;;;;;14.75;6.10;;;;;;;1.39;100.00;101408.94;6227889;23;20009;-92
2023/03/28 04:27:28;;;;;;;12.13;6.22;;;;;;;1.37;100.00;101414.13;6222175;23;20051;-94
2023/03/28 04:29:54;;;;;;;;;;;;;;;1.40;100.00;101413.28;6194671;23;20017;-94
2023/03/28 04:32:23;;;;;;;16.67;6.07;;;;;;;1.42;100.00;101408.94;6195709;23;19904;-92
2023/03/28 04:34:54;;;;;;;17.73;6.65;;;;;;;1.31;100.00;101397.56;6223227;23;20020;-94
2023/03/28 04:37:26;;;;;;;17.33;6.35;;;;;;;1.42;100.00;101417.63;6197634;23;20016;-94
2023/03/28 04:40:05;;;;;;;13.95;5.90;;;;;;;0.69;100.00;101299.75;6224222;23;20068;-94
2023/03/28 04:42:41;;;;;;;12.45;6.15;;;;;;;0.89;100.00;101330.31;6221378;23;20020;-95
2023/03/28 04:45:27;;;;;;;18.55;6.50;;;;;;;1.12;100.00;101370.47;6205023;23;20016;-91
2023/03/28 04:48:11;;;;;;;10.60;5.57;;;;;;;1.43;100.00;101426.34;6237004;22;20080;-90
2023/03/28 04:50:53;;;;;;;20.08;7.13;;;;;;;1.45;100.00;101436.78;6227049;23;20015;-93
2023/03/28 04:53:55;;;;;;;20.35;6.38;;;;;;;1.18;100.00;101380.06;6144590;23;20036;-94
2023/03/28 04:56:34;;;;;;;11.90;4.40;;;;;;;1.42;100.00;101427.19;6199984;23;20099;-94
2023/03/28 04:59:06;;;;;;;21.73;6.60;;;;;;;1.40;100.00;101429.81;6195016;23;20020;-94
2023/03/28 05:01:37;;;;;;;13.60;5.47;;;;;;;1.02;100.00;101371.25;6196513;23;20028;-91
2023/03/28 05:04:24;;;;;;;24.48;6.15;;;;;;;1.35;100.00;101431.53;6224677;23;20167;-94
2023/03/28 05:07:08;;;;;;;13.57;4.75;;;;;;;1.34;100.00;101445.44;6198565;23;20020;-93
2023/03/28 05:09:39;;;;;;;15.57;5.00;;;;;;;1.35;100.00;101448.91;6196806;23;20020;-91
2023/03/28 05:12:20;;;;;;;14.10;5.93;;;;;;;1.16;100.00;101427.03;6205471;23;20021;-91
2023/03/28 05:14:48;;;;;;;17.70;5.18;;;;;;;1.35;100.00;101462.84;6180567;23;20016;-90
2023/03/28 05:17:25;;;;;;;20.05;5.28;;;;;;;1.14;100.00;101422.66;6207895;22;20027;-92
2023/03/28 05:19:55;;;;;;;15.00;5.70;;;;;;;1.38;100.00;101460.25;6231095;23;20048;-89
2023/03/28 05:22:24;;;;;;;12.35;4.85;;;;;;;1.36;100.00;101467.19;6179676;23;20013;-91
2023/03/28 05:24:55;;;;;;;14.27;5.07;;;;;;;0.76;100.00;101358.03;6177943;23;20008;-91
2023/03/28 05:27:28;;;;;;;13.38;5.05;;;;;;;0.85;100.00;101378.09;6180493;23;20017;-94
2023/03/28 05:30:07;;;;;;;14.07;5.30;;;;;;;1.41;100.00;101472.47;6199177;23;20025;-92
2023/03/28 05:32:41;;;;;;;15.13;4.75;;;;;;;1.20;100.00;101440.97;6170201;23;20434;-96
2023/03/28 05:35:36;;;;;;;15.38;5.35;;;;;;;1.44;100.00;101479.41;6176149;23;20032;-94
2023/03/28 05:38:08;;;;;;;21.10;5.93;;;;;;;1.45;100.00;101484.63;6173367;23;20025;-94
2023/03/28 05:40:47;;;;;;;19.77;5.80;;;;;;;1.46;100.00;101486.38;6177061;23;20299;-91
2023/03/28 05:43:24;;;;;;;15.02;5.38;;;;;;;1.47;100.00;101485.53;6159188;23;20012;-90
2023/03/28 05:45:58;;;;;;;15.43;5.50;;;;;;;1.21;100.00;101446.19;6182611;23;20021;-90
2023/03/28 05:48:30;;;;;;;11.70;4.70;;;;;;;1.24;100.00;101454.06;6181527;23;20028;-91
2023/03/28 05:51:13;;;;;;;15.07;5.85;;;;;;;0.88;100.00;101381.59;6186199;23;20020;-91
2023/03/28 05:53:51;;;;;;;15.95;5.88;;;;;;;0.93;100.00;101392.94;6185011;23;20059;-94
2023/03/28 05:56:39;;;;;;;17.00;5.78;;;;;;;1.58;100.00;101496.91;6200540;23;20035;-91
2023/03/28 05:59:23;;;;;;;18.23;5.88;;;;;;;1.48;100.00;101466.41;6237079;22;20024;-93
2023/03/28 06:02:06;;;;;;;19.50;6.10;;;;;;;1.31;100.00;101426.25;6237419;22;20029;-91
2023/03/28 06:04:52;;;;;;;13.05;5.82;;;;;;;1.69;100.00;101492.66;6235447;23;20024;-93
2023/03/28 06:07:21;;;;;;;14.98;6.13;;;;;;;1.04;100.00;101374.75;6234099;22;20015;-91
2023/03/28 06:10:14;;;;;;;15.48;5.85;;;;;;;1.17;100.00;101387.03;6233345;23;20016;-92
2023/03/28 06:12:48;;;;;;;18.65;6.30;;;;;;;1.43;100.00;101434.16;6231526;23;20016;-94
2023/03/28 06:15:20;;;;;;;15.10;6.28;;;;;;;1.20;100.00;101399.22;6257632;22;20032;-93
2023/03/28 06:17:51;;;;;;;16.00;6.40;;;;;;;1.86;100.00;101502.34;6227373;23;20017;-92
2023/03/28 06:20:26;;;;;;;15.00;5.93;;;;;;;1.53;100.00;101441.22;6248825;23;20025;-90
2023/03/28 06:23:10;;;;;;;13.05;5.90;;;;;;;1.31;100.00;101393.22;6226006;23;20012;-94
2023/03/28 06:25:48;;;;;;;11.90;6.05;;;;;;;1.42;100.00;101402.88;6224403;23;20024;-94
2023/03/28 06:28:32;;;;;;;13.02;6.18;;;;;;;2.06;100.00;101506.81;6231205;22;20072;-93
2023/03/28 06:31:09;;;;;;;11.00;5.22;;;;;;;2.10;100.00;101502.47;6234377;23;20020;-93
2023/03/28 06:33:45;;;;;;;18.40;6.95;;;;;;;1.78;100.00;101429.16;6237291;23;20015;-93
2023/03/28 06:36:19;;;;;;;13.80;5.47;;;;;;;2.33;100.00;101508.69;6237330;23;20239;-93
2023/03/28 06:38:53;;;;;;;13.40;5.50;;;;;;;1.73;100.00;101392.56;6238105;22;20021;-91
2023/03/28 06:41:37;;;;;;;15.65;5.38;;;;;;;1.79;100.00;101393.47;6213525;23;20024;-91
2023/03/28 06:44:15;;;;;;;13.68;5.38;;;;;;;1.84;100.00;101397.88;6218674;23;20009;-92
2023/03/28 06:46:47;;;;;;;14.07;5.57;;;;;;;2.17;100.00;101441.56;6239634;22;20020;-92
2023/03/28 06:49:15;;;;;;;15.38;4.88;;;;;;;2.58;100.00;101507.03;6237466;22;20023;-93
2023/03/28 06:51:46;;;;;;;15.40;5.55;;;;;;;2.68;100.00;101515.78;6193895;22;20039;-92
2023/03/28 06:54:50;;;;;;;15.23;5.18;;;;;;;2.21;100.00;101414.53;6228374;22;20069;-92
2023/03/28 06:57:26;;;;;;;14.63;4.93;;;;;;;3.00;100.00;101514.09;6209751;22;20035;-91
2023/03/28 07:00:24;;;;;;;13.00;4.40;;;;;;;3.23;100.00;101523.75;6225722;22;20037;-91
2023/03/28 07:03:28;;;;;;;14.15;5.10;;;;;;;3.34;100.00;101493.22;6187869;22;20043;-92
2023/03/28 07:06:09;;;;;;;17.50;6.00;;;;;;;3.29;100.00;101413.81;6187239;23;20080;-92
2023/03/28 07:08:39;;;;;;;18.90;4.70;;;;;;;4.11;100.00;101526.28;6236285;23;20076;-93
2023/03/28 07:11:30;;;;;;;18.95;5.85;;;;;;;4.17;100.00;101489.59;6216614;22;20018;-91
2023/03/28 07:14:12;;;;;;;13.27;5.10;;;;;;;4.67;97.61;101525.22;6213417;22;20042;-93
2023/03/28 07:16:54;;;;;;;13.50;3.35;;;;;;;4.42;90.85;101467.63;6188589;23;20016;-90
2023/03/28 07:19:39;;;;;;;15.35;4.18;;;;;;;4.48;91.82;101469.34;6214592;23;20020;-91
2023/03/28 07:22:18;;;;;;;12.32;4.38;;;;;;;4.93;89.73;101528.56;6212019;23;20025;-93
2023/03/28 07:24:52;;;;;;;10.20;3.78;;;;;;;4.84;87.96;101533.88;6238158;22;20025;-94
2023/03/28 07:27:26;;;;;;;12.75;4.13;;;;;;;4.81;86.27;101502.41;6232875;23;20016;-94
2023/03/28 07:30:09;;;;;;;16.48;4.72;;;;;;;4.55;85.72;101439.59;6230624;23;20013;-94
2023/03/28 07:32:38;;;;;;;12.77;3.80;;;;;;;5.11;83.96;101536.34;6209199;23;20023;-92
2023/03/28 07:35:22;;;;;;;14.00;4.18;;;;;;;5.28;85.47;101549.34;6213294;23;20072;-92
2023/03/28 07:38:06;;;;;;;17.98;4.50;;;;;;;5.12;81.46;101446.19;6211606;23;20115;-92
2023/03/28 07:40:37;;;;;;;12.55;4.45;;;;;;;6.02;80.80;101547.00;6211034;23;20009;-94
2023/03/28 07:43:09;;;;;;;12.00;4.00;;;;;;;6.06;75.46;101493.50;6210300;23;20020;-94
2023/03/28 07:45:39;;;;;;;7.22;3.70;;;;;;;5.71;73.98;101465.78;6204485;23;20453;-95
2023/03/28 07:48:10;;;;;;;13.43;3.53;;;;;;;6.10;74.65;101550.44;6154349;23;20326;-93
2023/03/28 07:50:44;;;;;;;11.23;3.20;;;;;;;5.87;74.53;101519.94;6206333;23;20021;-93
2023/03/28 07:53:39;;;;;;;23.75;7.05;;;;;;;5.48;74.31;101465.16;6127893;23;20486;-94
2023/03/28 07:56:22;;;;;;;8.90;3.17;;;;;;;6.14;73.08;101489.88;6143658;23;20032;-94
2023/03/28 07:58:53;;;;;;;9.93;3.33;;;;;;;7.14;67.25;101516.66;6148751;23;20022;-91
2023/03/28 08:01:25;;;;;;;14.43;3.22;;;;;;;7.79;63.97;101541.06;6169766;23;20005;-91
2023/03/28 08:04:00;;;;;;;9.50;3.08;;;;;;;7.49;60.95;101492.38;6132581;23;20041;-92
2023/03/28 08:06:40;;;;;;;10.23;2.88;;;;;;;6.79;62.12;101482.06;6121529;23;20052;-91
2023/03/28 08:09:26;;;;;;;10.45;2.85;;;;;;;7.12;62.21;101563.22;6122181;23;20030;-93
2023/03/28 08:12:08;;;;;;;10.80;3.47;;;;;;;6.59;64.46;101542.88;6164172;23;20012;-90
2023/03/28 08:14:48;;;;;;;9.25;2.53;;;;;;;5.84;64.94;101461.28;6207993;23;20025;-92
2023/03/28 08:17:25;;;;;;;14.00;3.15;;;;;;;6.14;66.90;101539.03;6160064;23;20013;-90
2023/03/28 08:20:20;;;;;;;13.32;3.20;;;;;;;5.68;68.29;101515.75;6132257;23;20021;-90
2023/03/28 08:23:20;;;;;;;9.48;2.63;;;;;;;5.78;70.01;101516.56;6158812;23;20032;-92
2023/03/28 08:26:06;;;;;;;11.13;2.60;;;;;;;6.01;67.49;101559.28;6158124;23;20114;-92
2023/03/28 08:28:46;;;;;;;7.50;2.00;;;;;;;6.09;69.00;101560.09;6152619;23;20009;-90
2023/03/28 08:31:31;;;;;;;10.27;2.53;;;;;;;6.28;67.76;101524.81;6158829;22;20036;-91
2023/03/28 08:34:43;;;;;;;8.77;2.42;;;;;;;6.24;66.33;101564.31;6219198;22;20131;-89
2023/03/28 08:37:20;;;;;;;9.90;2.83;;;;;;;6.24;67.59;101554.66;6234613;22;20090;-91
2023/03/28 08:40:07;;;;;;;9.70;2.05;;;;;;;6.44;67.09;101575.50;6214821;22;20009;-90
2023/03/28 08:43:34;;;;;;;7.80;2.05;;;;;;;6.12;66.09;101541.66;6236171;22;20016;-92
2023/03/28 08:46:12;;;;;;;6.70;2.08;;;;;;;5.80;67.71;101462.22;6227288;23;20025;-92
2023/03/28 08:48:54;;;;;;;9.95;2.63;;;;;;;6.53;63.86;101512.22;6221429;23;20021;-93
2023/03/28 08:51:41;;;;;;;10.88;2.17;;;;;;;6.84;63.07;101522.34;6222552;23;20076;-93
2023/03/28 08:57:41;;;;;;;8.02;1.80;;;;;;;6.71;61.54;101560.28;6201271;22;20029;-92
2023/03/28 09:00:33;;;;;;;8.63;1.90;;;;;;;6.90;59.64;101561.78;6232066;22;20008;-92
2023/03/28 09:03:23;;;;;;;5.22;1.42;;;;;;;6.46;58.26;101494.75;6238042;22;20039;-91
2023/03/28 09:06:25;;;;;;;6.13;2.42;;;;;;;6.29;59.42;101530.97;6234205;23;20016;-91
2023/03/28 09:09:20;;;;;;;8.70;1.83;;;;;;;5.81;59.88;101483.22;6233118;23;20020;-92
2023/03/28 09:12:04;;;;;;;8.50;2.05;;;;;;;5.83;60.49;101509.47;6227411;22;20023;-93
2023/03/28 09:15:40;;;;;;;9.35;1.38;;;;;;;5.43;60.30;101485.34;6228354;23;20031;-91
2023/03/28 09:18:53;;;;;;;9.13;1.90;;;;;;;5.78;60.33;101501.66;6226611;23;20059;-94
2023/03/28 09:22:03;;;;;;;9.10;2.65;;;;;;;6.01;58.99;101514.59;6225177;23;20057;-93
2023/03/28 09:25:29;;;;;;;8.38;1.75;;;;;;;6.34;55.12;101534.38;6110857;23;20065;-92
2023/03/28 09:28:13;;;;;;;2.88;0.82;;;;;;;6.65;50.14;101567.34;6150451;23;20016;-94
2023/03/28 09:30:49;;;;;;;6.20;1.50;;;;;;;6.69;48.25;101563.78;6231405;23;20072;-93
2023/03/28 09:33:39;;;;;;;7.30;1.25;;;;;;;6.84;50.17;101567.13;6209470;23;20029;-93
2023/03/28 09:36:27;;;;;;;4.32;1.30;;;;;;;7.25;49.35;101566.53;6235758;22;20020;-94
2023/03/28 09:39:54;;;;;;;6.72;1.50;;;;;;;7.64;47.75;101555.38;6184927;22;21522;-91
2023/03/28 09:43:01;;;;;;;9.55;1.73;;;;;;;7.93;52.23;101548.75;6256115;22;20398;-92
2023/03/28 09:46:11;;;;;;;6.57;2.35;;;;;;;7.11;53.76;101452.59;6211811;22;20012;-93
2023/03/28 09:48:39;;;;;;;7.95;2.35;;;;;;;7.79;54.25;101559.53;6166749;22;20014;-91
2023/03/28 09:51:17;;;;;;;9.85;2.10;;;;;;;7.59;53.39;101501.00;6131854;22;20031;-91
2023/03/28 09:54:06;;;;;;;7.35;1.90;;;;;;;8.03;52.96;101547.66;6238569;22;20017;-91
2023/03/28 09:56:48;;;;;;;8.18;2.22;;;;;;;7.40;52.54;101492.50;6214749;22;20016;-92
2023/03/28 09:59:36;;;;;;;5.40;1.80;;;;;;;6.88;53.94;101492.47;6183746;23;20071;-93
2023/03/28 10:02:58;;;;;;;7.50;1.80;;;;;;;6.91;53.49;101481.91;6204827;23;20021;-93
2023/03/28 10:05:46;;;;;;;9.18;1.92;;;;;;;7.10;53.21;101516.72;6207213;23;20016;-91
2023/03/28 10:08:39;;;;;;;4.60;1.20;;;;;;;6.99;50.40;101494.03;6167898;22;20243;-91
2023/03/28 10:11:21;;;;;;;6.72;1.67;;;;;;;7.48;50.65;101500.31;6204814;23;20013;-91
2023/03/28 10:14:38;;;;;;;8.18;1.30;;;;;;;7.81;48.45;101522.59;6210228;23;20035;-91
2023/03/28 10:17:42;;;;;;;5.45;1.38;;;;;;;7.90;46.87;101532.97;6181296;23;20017;-90
2023/03/28 10:20:23;;;;;;;7.10;1.45;;;;;;;7.99;47.42;101533.69;6087459;23;20026;-92
2023/03/28 10:22:56;;;;;;;6.78;1.35;;;;;;;8.31;47.27;101524.28;6194645;23;20101;-92
2023/03/28 10:25:40;;;;;;;7.32;1.67;;;;;;;8.35;45.94;101460.88;6182045;23;20048;-92
2023/03/28 10:28:33;;;;;;;5.88;1.42;;;;;;;8.89;44.45;101510.75;6199712;23;20028;-92
2023/03/28 10:31:04;;;;;;;7.45;1.33;;;;;;;9.12;44.17;101523.47;6171222;23;20036;-90
2023/03/28 10:33:42;;;;;;;4.97;1.00;;;;;;;8.58;43.19;101460.41;6170151;23;20124;-92
2023/03/28 10:36:51;;;;;;;4.50;1.00;;;;;;;8.70;43.20;101475.09;6149055;23;20367;-91
2023/03/28 10:39:29;;;;;;;7.07;1.10;;;;;;;9.00;40.72;101523.72;6197305;23;20031;-91
2023/03/28 10:42:02;;;;;;;5.00;1.10;;;;;;;8.64;41.87;101491.97;6171349;23;20041;-90
2023/03/28 10:44:35;;;;;;;2.83;0.77;;;;;;;8.49;43.34;101454.47;6175122;23;20014;-90
2023/03/28 10:47:20;;;;;;;5.65;0.90;;;;;;;8.65;44.58;101533.31;6186766;23;20020;-91
2023/03/28 10:49:54;;;;;;;4.35;1.02;;;;;;;8.12;44.17;101485.97;6179740;23;20017;-91
2023/03/28 10:52:47;;;;;;;5.72;0.93;;;;;;;8.00;44.67;101509.06;6169616;23;20013;-90
2023/03/28 10:55:22;;;;;;;6.03;1.25;;;;;;;7.76;45.50;101483.13;6195828;23;20040;-91
2023/03/28 10:58:11;;;;;;;6.65;1.30;;;;;;;8.01;46.10;101500.25;6171937;23;20025;-89
2023/03/28 11:00:54;;;;;;;5.38;1.05;;;;;;;7.65;46.19;101438.50;6180053;23;20497;-90
2023/03/28 11:03:47;;;;;;;5.47;1.20;;;;;;;7.93;45.64;101517.09;6207523;23;20093;-89
2023/03/28 11:06:52;;;;;;;4.93;1.00;;;;;;;7.71;46.59;101490.25;6209081;23;20029;-90
2023/03/28 11:10:00;;;;;;;6.90;1.65;;;;;;;7.37;46.65;101448.66;6180223;23;20017;-92
2023/03/28 11:12:35;;;;;;;5.68;1.40;;;;;;;7.98;46.92;101488.88;6200016;23;20017;-90
2023/03/28 11:15:45;;;;;;;5.47;1.35;;;;;;;8.21;46.30;101505.09;6208204;23;20013;-91
2023/03/28 11:18:37;;;;;;;4.18;1.40;;;;;;;8.31;43.92;101504.06;6178930;23;20012;-92
2023/03/28 11:21:46;;;;;;;6.25;1.20;;;;;;;8.09;44.43;101461.38;6200077;23;20234;-92
2023/03/28 11:24:52;;;;;;;4.35;0.98;;;;;;;8.40;43.78;101493.31;6170401;23;20344;-91
2023/03/28 11:27:27;;;;;;;6.55;1.85;;;;;;;8.23;44.03;101465.50;6167930;23;20013;-92
2023/03/28 11:30:25;;;;;;;6.57;1.42;;;;;;;8.34;44.86;101484.69;6196977;23;20021;-92
2023/03/28 11:33:15;;;;;;;6.55;1.40;;;;;;;8.06;45.93;101427.13;6193562;23;20048;-94
2023/03/28 11:36:12;;;;;;;4.13;1.20;;;;;;;8.04;46.70;101436.84;6169134;23;20109;-91
2023/03/28 11:38:46;;;;;;;5.47;1.10;;;;;;;7.66;45.68;101421.78;6169356;23;20056;-93
2023/03/28 11:41:48;;;;;;;4.90;1.23;;;;;;;8.28;45.53;101467.16;6170858;23;20035;-93
2023/03/28 11:44:36;;;;;;;6.30;1.20;;;;;;;8.26;44.71;101463.69;6148881;23;20017;-92
2023/03/28 11:47:16;;;;;;;6.17;1.33;;;;;;;7.47;45.01;101367.66;6166787;23;20431;-92
2023/03/28 11:50:18;;;;;;;6.07;0.90;;;;;;;7.74;44.27;101445.34;6173924;23;20044;-91
2023/03/28 11:53:37;;;;;;;5.43;1.45;;;;;;;7.70;46.03;101438.44;6169582;23;20370;-92
2023/03/28 11:56:25;;;;;;;6.20;1.45;;;;;;;7.82;45.57;101405.66;6120858;23;20016;-93
2023/03/28 11:59:21;;;;;;;6.47;1.15;;;;;;;8.48;44.73;101466.78;6182261;23;20071;-91
2023/03/28 12:02:05;;;;;;;6.00;1.20;;;;;;;8.33;43.64;101366.81;6185332;23;20029;-92
2023/03/28 12:04:48;;;;;;;4.55;1.38;;;;;;;9.24;42.56;101430.66;6177145;23;20029;-92
2023/03/28 12:07:36;;;;;;;2.97;1.02;;;;;;;9.66;40.84;101452.50;6179836;23;20021;-91
2023/03/28 12:10:26;;;;;;;5.03;1.20;;;;;;;9.25;39.32;101408.63;6230649;22;20024;-91
2023/03/28 12:13:06;;;;;;;4.07;0.98;;;;;;;9.33;39.68;101433.06;6236673;22;20016;-93
2023/03/28 12:15:51;;;;;;;4.18;1.10;;;;;;;9.33;40.86;101433.06;6235547;22;20047;-91
2023/03/28 12:19:08;;;;;;;2.92;1.10;;;;;;;8.62;42.30;101366.16;6231042;23;20017;-91
2023/03/28 12:21:57;;;;;;;2.55;0.80;;;;;;;8.73;41.72;101422.22;6224511;23;20028;-92
2023/03/28 12:24:34;;;;;;;3.72;1.15;;;;;;;8.73;42.82;101416.94;6198821;23;20116;-91
2023/03/28 12:27:16;;;;;;;;;;;;;;;8.97;42.18;101412.88;6224350;23;20097;-90
2023/03/28 12:30:24;;;;;;;8.02;1.17;;;;;;;9.20;40.63;101407.00;6227985;23;19918;-93
2023/03/28 12:33:28;;;;;;;2.08;0.82;;;;;;;9.52;41.00;101400.88;6224262;23;20072;-92
2023/03/28 12:36:04;;;;;;;4.80;1.50;;;;;;;9.63;39.32;101378.50;6221465;23;20032;-91
2023/03/28 12:39:40;;;;;;;4.15;1.20;;;;;;;9.31;39.82;101400.50;6225410;23;20017;-93
2023/03/28 12:42:12;;;;;;;4.35;1.25;;;;;;;8.05;40.44;101296.16;6172729;23;20025;-91
2023/03/28 12:44:54;;;;;;;4.20;1.10;;;;;;;8.68;41.38;101379.19;6197384;23;20004;-91
2023/03/28 12:47:43;;;;;;;3.45;0.90;;;;;;;8.79;40.17;101340.22;6229386;23;20023;-91
2023/03/28 12:50:39;;;;;;;3.70;0.90;;;;;;;9.36;39.25;101372.19;6226744;23;20036;-92
2023/03/28 12:53:24;;;;;;;6.70;1.23;;;;;;;9.70;39.53;101384.50;6225310;23;20016;-91
2023/03/28 12:55:58;;;;;;;2.85;0.80;;;;;;;9.70;37.68;101329.84;6228825;23;20016;-92
2023/03/28 12:58:35;;;;;;;3.35;1.10;;;;;;;9.99;38.21;101349.28;6235193;22;20013;-91
2023/03/28 13:01:19;;;;;;;4.70;1.08;;;;;;;10.27;39.43;101357.31;6238391;22;20039;-91
2023/03/28 13:04:02;;;;;;;4.15;1.33;;;;;;;10.52;38.04;101374.19;6234121;22;20017;-92
2023/03/28 13:06:46;;;;;;;3.15;0.95;;;;;;;10.54;38.35;101375.00;6225546;23;20025;-93
2023/03/28 13:09:40;;;;;;;3.22;0.88;;;;;;;10.50;38.57;101342.44;6226184;23;20043;-92
2023/03/28 13:13:13;;;;;;;4.13;1.02;;;;;;;10.66;36.81;101358.72;6231336;23;20008;-91
2023/03/28 13:16:12;;;;;;;3.90;1.88;;;;;;;10.21;37.16;101307.22;6216560;22;20012;-91
2023/03/28 13:19:11;;;;;;;4.78;1.30;;;;;;;10.46;37.17;101358.47;6238885;22;20023;-90